sensor_id;sensor_type;location;lat;lon;timestamp;P1;durP1;ratioP1;P2;durP2;ratioP2
9815;SDS011;4947;44.526;11.360;2022-12-16T00:00:07;34.73;;;19.20;;
9815;SDS011;4947;44.526;11.360;2022-12-16T00:02:35;34.23;;;18.70;;
9815;SDS011;4947;44.526;11.360;2022-12-16T00:05:05;33.53;;;18.40;;
9815;SDS011;4947;44.526;11.360;2022-12-16T00:07:33;32.27;;;19.40;;
9815;SDS011;4947;44.526;11.360;2022-12-16T00:10:02;31.57;;;18.73;;
9815;SDS011;4947;44.526;11.360;2022-12-16T00:12:30;34.23;;;18.77;;
9815;SDS011;4947;44.526;11.360;2022-12-16T00:14:58;28.40;;;18.17;;
9815;SDS011;4947;44.526;11.360;2022-12-16T00:17:25;35.30;;;19.63;;
9815;SDS011;4947;44.526;11.360;2022-12-16T00:19:53;35.87;;;21.13;;
9815;SDS011;4947;44.526;11.360;2022-12-16T00:22:22;33.70;;;18.83;;
9815;SDS011;4947;44.526;11.360;2022-12-16T00:24:49;39.47;;;20.77;;
9815;SDS011;4947;44.526;11.360;2022-12-16T00:27:17;40.17;;;20.43;;
9815;SDS011;4947;44.526;11.360;2022-12-16T00:29:44;37.77;;;21.47;;
9815;SDS011;4947;44.526;11.360;2022-12-16T00:32:11;40.70;;;22.00;;
9815;SDS011;4947;44.526;11.360;2022-12-16T00:34:39;39.17;;;20.10;;
9815;SDS011;4947;44.526;11.360;2022-12-16T00:37:07;38.83;;;22.53;;
9815;SDS011;4947;44.526;11.360;2022-12-16T00:39:36;46.70;;;23.10;;
9815;SDS011;4947;44.526;11.360;2022-12-16T00:42:07;44.07;;;22.60;;
9815;SDS011;4947;44.526;11.360;2022-12-16T00:44:34;36.27;;;22.97;;
9815;SDS011;4947;44.526;11.360;2022-12-16T00:47:01;40.87;;;23.30;;
9815;SDS011;4947;44.526;11.360;2022-12-16T00:49:29;49.70;;;25.87;;
9815;SDS011;4947;44.526;11.360;2022-12-16T00:51:57;45.03;;;25.20;;
9815;SDS011;4947;44.526;11.360;2022-12-16T00:54:24;43.90;;;24.50;;
9815;SDS011;4947;44.526;11.360;2022-12-16T00:56:53;45.30;;;25.93;;
9815;SDS011;4947;44.526;11.360;2022-12-16T00:59:21;49.00;;;24.77;;
9815;SDS011;4947;44.526;11.360;2022-12-16T01:01:49;43.00;;;24.00;;
9815;SDS011;4947;44.526;11.360;2022-12-16T01:04:16;43.97;;;25.00;;
9815;SDS011;4947;44.526;11.360;2022-12-16T01:06:45;49.20;;;25.80;;
9815;SDS011;4947;44.526;11.360;2022-12-16T01:09:12;55.33;;;25.73;;
9815;SDS011;4947;44.526;11.360;2022-12-16T01:11:40;53.70;;;26.60;;
9815;SDS011;4947;44.526;11.360;2022-12-16T01:14:08;55.17;;;28.63;;
9815;SDS011;4947;44.526;11.360;2022-12-16T01:16:36;51.57;;;28.80;;
9815;SDS011;4947;44.526;11.360;2022-12-16T01:19:04;56.63;;;28.60;;
9815;SDS011;4947;44.526;11.360;2022-12-16T01:21:31;46.40;;;26.83;;
9815;SDS011;4947;44.526;11.360;2022-12-16T01:23:59;56.17;;;30.63;;
9815;SDS011;4947;44.526;11.360;2022-12-16T01:26:26;46.47;;;27.00;;
9815;SDS011;4947;44.526;11.360;2022-12-16T01:28:57;50.80;;;26.77;;
9815;SDS011;4947;44.526;11.360;2022-12-16T01:31:26;51.67;;;27.77;;
9815;SDS011;4947;44.526;11.360;2022-12-16T01:33:53;53.33;;;26.73;;
9815;SDS011;4947;44.526;11.360;2022-12-16T01:36:22;50.07;;;27.70;;
9815;SDS011;4947;44.526;11.360;2022-12-16T01:38:50;46.10;;;25.73;;
9815;SDS011;4947;44.526;11.360;2022-12-16T01:41:18;56.40;;;28.17;;
9815;SDS011;4947;44.526;11.360;2022-12-16T01:43:45;54.33;;;28.37;;
9815;SDS011;4947;44.526;11.360;2022-12-16T01:46:14;57.10;;;29.80;;
9815;SDS011;4947;44.526;11.360;2022-12-16T01:48:48;54.53;;;28.50;;
9815;SDS011;4947;44.526;11.360;2022-12-16T01:51:19;61.70;;;29.23;;
9815;SDS011;4947;44.526;11.360;2022-12-16T01:53:51;57.67;;;29.73;;
9815;SDS011;4947;44.526;11.360;2022-12-16T01:56:22;56.10;;;27.20;;
9815;SDS011;4947;44.526;11.360;2022-12-16T01:58:53;56.80;;;30.87;;
9815;SDS011;4947;44.526;11.360;2022-12-16T02:01:21;52.20;;;27.80;;
9815;SDS011;4947;44.526;11.360;2022-12-16T02:03:51;50.07;;;28.40;;
9815;SDS011;4947;44.526;11.360;2022-12-16T02:06:22;50.63;;;27.40;;
9815;SDS011;4947;44.526;11.360;2022-12-16T02:08:51;47.67;;;26.13;;
9815;SDS011;4947;44.526;11.360;2022-12-16T02:11:26;51.30;;;27.83;;
9815;SDS011;4947;44.526;11.360;2022-12-16T02:16:55;43.40;;;26.23;;
9815;SDS011;4947;44.526;11.360;2022-12-16T02:19:38;43.60;;;24.13;;
9815;SDS011;4947;44.526;11.360;2022-12-16T02:22:31;40.60;;;23.07;;
9815;SDS011;4947;44.526;11.360;2022-12-16T02:28:12;38.00;;;21.50;;
9815;SDS011;4947;44.526;11.360;2022-12-16T02:31:00;38.17;;;21.10;;
9815;SDS011;4947;44.526;11.360;2022-12-16T02:33:51;36.57;;;21.07;;
9815;SDS011;4947;44.526;11.360;2022-12-16T02:36:41;38.27;;;21.67;;
9815;SDS011;4947;44.526;11.360;2022-12-16T02:39:18;34.90;;;21.23;;
9815;SDS011;4947;44.526;11.360;2022-12-16T02:41:49;37.37;;;21.00;;
9815;SDS011;4947;44.526;11.360;2022-12-16T02:44:22;33.97;;;19.97;;
9815;SDS011;4947;44.526;11.360;2022-12-16T02:47:00;36.57;;;20.87;;
9815;SDS011;4947;44.526;11.360;2022-12-16T02:49:40;33.87;;;20.43;;
9815;SDS011;4947;44.526;11.360;2022-12-16T02:52:14;34.03;;;20.37;;
9815;SDS011;4947;44.526;11.360;2022-12-16T02:54:42;27.60;;;17.93;;
9815;SDS011;4947;44.526;11.360;2022-12-16T02:57:14;28.97;;;18.70;;
9815;SDS011;4947;44.526;11.360;2022-12-16T03:00:14;29.73;;;18.50;;
9815;SDS011;4947;44.526;11.360;2022-12-16T03:02:46;26.00;;;17.27;;
9815;SDS011;4947;44.526;11.360;2022-12-16T03:05:20;27.77;;;16.33;;
9815;SDS011;4947;44.526;11.360;2022-12-16T03:07:51;30.33;;;18.33;;
9815;SDS011;4947;44.526;11.360;2022-12-16T03:10:23;32.60;;;17.83;;
9815;SDS011;4947;44.526;11.360;2022-12-16T03:12:53;24.93;;;16.10;;
9815;SDS011;4947;44.526;11.360;2022-12-16T03:15:24;24.70;;;17.27;;
9815;SDS011;4947;44.526;11.360;2022-12-16T03:17:56;28.07;;;17.50;;
9815;SDS011;4947;44.526;11.360;2022-12-16T03:20:26;25.93;;;16.67;;
9815;SDS011;4947;44.526;11.360;2022-12-16T03:22:56;24.80;;;15.63;;
9815;SDS011;4947;44.526;11.360;2022-12-16T03:25:27;25.20;;;16.40;;
9815;SDS011;4947;44.526;11.360;2022-12-16T03:27:58;23.97;;;16.17;;
9815;SDS011;4947;44.526;11.360;2022-12-16T03:30:37;29.20;;;16.20;;
9815;SDS011;4947;44.526;11.360;2022-12-16T03:33:10;22.43;;;14.57;;
9815;SDS011;4947;44.526;11.360;2022-12-16T03:35:43;27.97;;;14.93;;
9815;SDS011;4947;44.526;11.360;2022-12-16T03:38:16;22.90;;;14.03;;
9815;SDS011;4947;44.526;11.360;2022-12-16T03:40:47;26.70;;;14.37;;
9815;SDS011;4947;44.526;11.360;2022-12-16T03:43:17;24.33;;;14.73;;
9815;SDS011;4947;44.526;11.360;2022-12-16T03:45:49;18.90;;;13.73;;
9815;SDS011;4947;44.526;11.360;2022-12-16T03:48:23;21.67;;;13.23;;
9815;SDS011;4947;44.526;11.360;2022-12-16T03:50:51;21.17;;;14.43;;
9815;SDS011;4947;44.526;11.360;2022-12-16T03:53:25;20.17;;;13.37;;
9815;SDS011;4947;44.526;11.360;2022-12-16T03:55:52;22.57;;;14.03;;
9815;SDS011;4947;44.526;11.360;2022-12-16T03:58:20;18.63;;;13.33;;
9815;SDS011;4947;44.526;11.360;2022-12-16T04:00:47;22.63;;;13.20;;
9815;SDS011;4947;44.526;11.360;2022-12-16T04:03:15;27.13;;;14.33;;
9815;SDS011;4947;44.526;11.360;2022-12-16T04:05:44;20.33;;;13.03;;
9815;SDS011;4947;44.526;11.360;2022-12-16T04:08:11;19.50;;;12.23;;
9815;SDS011;4947;44.526;11.360;2022-12-16T04:10:39;22.80;;;12.77;;
9815;SDS011;4947;44.526;11.360;2022-12-16T04:13:23;21.03;;;12.77;;
9815;SDS011;4947;44.526;11.360;2022-12-16T04:16:08;18.87;;;11.90;;
9815;SDS011;4947;44.526;11.360;2022-12-16T04:18:58;22.63;;;12.20;;
9815;SDS011;4947;44.526;11.360;2022-12-16T04:21:44;20.77;;;12.80;;
9815;SDS011;4947;44.526;11.360;2022-12-16T04:24:28;20.53;;;12.53;;
9815;SDS011;4947;44.526;11.360;2022-12-16T04:26:56;26.37;;;12.30;;
9815;SDS011;4947;44.526;11.360;2022-12-16T04:29:40;18.20;;;12.40;;
9815;SDS011;4947;44.526;11.360;2022-12-16T04:32:21;25.57;;;12.60;;
9815;SDS011;4947;44.526;11.360;2022-12-16T04:34:49;19.40;;;12.57;;
9815;SDS011;4947;44.526;11.360;2022-12-16T04:37:18;18.23;;;12.90;;
9815;SDS011;4947;44.526;11.360;2022-12-16T04:40:02;19.77;;;12.77;;
9815;SDS011;4947;44.526;11.360;2022-12-16T04:42:48;18.50;;;11.50;;
9815;SDS011;4947;44.526;11.360;2022-12-16T04:45:46;17.50;;;12.97;;
9815;SDS011;4947;44.526;11.360;2022-12-16T04:48:31;20.30;;;12.43;;
9815;SDS011;4947;44.526;11.360;2022-12-16T04:51:15;18.80;;;11.80;;
9815;SDS011;4947;44.526;11.360;2022-12-16T04:54:01;22.30;;;12.17;;
9815;SDS011;4947;44.526;11.360;2022-12-16T04:56:45;17.60;;;11.93;;
9815;SDS011;4947;44.526;11.360;2022-12-16T04:59:35;20.33;;;12.33;;
9815;SDS011;4947;44.526;11.360;2022-12-16T05:02:31;16.77;;;10.50;;
9815;SDS011;4947;44.526;11.360;2022-12-16T05:05:15;18.80;;;10.63;;
9815;SDS011;4947;44.526;11.360;2022-12-16T05:07:59;20.60;;;11.93;;
9815;SDS011;4947;44.526;11.360;2022-12-16T05:10:46;23.23;;;12.30;;
9815;SDS011;4947;44.526;11.360;2022-12-16T05:13:30;20.60;;;12.47;;
9815;SDS011;4947;44.526;11.360;2022-12-16T05:16:15;20.20;;;11.57;;
9815;SDS011;4947;44.526;11.360;2022-12-16T05:18:59;18.53;;;11.50;;
9815;SDS011;4947;44.526;11.360;2022-12-16T05:21:44;26.43;;;12.60;;
9815;SDS011;4947;44.526;11.360;2022-12-16T05:24:28;18.20;;;12.77;;
9815;SDS011;4947;44.526;11.360;2022-12-16T05:27:14;20.53;;;13.53;;
9815;SDS011;4947;44.526;11.360;2022-12-16T05:30:12;20.90;;;11.87;;
9815;SDS011;4947;44.526;11.360;2022-12-16T05:32:57;20.00;;;13.00;;
9815;SDS011;4947;44.526;11.360;2022-12-16T05:35:42;21.17;;;13.60;;
9815;SDS011;4947;44.526;11.360;2022-12-16T05:38:26;19.73;;;13.97;;
9815;SDS011;4947;44.526;11.360;2022-12-16T05:41:10;19.47;;;13.63;;
9815;SDS011;4947;44.526;11.360;2022-12-16T05:43:57;19.93;;;14.00;;
9815;SDS011;4947;44.526;11.360;2022-12-16T05:46:41;17.27;;;12.90;;
9815;SDS011;4947;44.526;11.360;2022-12-16T05:49:25;15.37;;;12.10;;
9815;SDS011;4947;44.526;11.360;2022-12-16T05:52:10;14.23;;;10.93;;
9815;SDS011;4947;44.526;11.360;2022-12-16T05:54:54;16.47;;;11.53;;
9815;SDS011;4947;44.526;11.360;2022-12-16T05:57:38;17.00;;;11.73;;
9815;SDS011;4947;44.526;11.360;2022-12-16T06:00:24;15.87;;;10.97;;
9815;SDS011;4947;44.526;11.360;2022-12-16T06:03:09;13.13;;;10.47;;
9815;SDS011;4947;44.526;11.360;2022-12-16T06:05:54;16.10;;;12.17;;
9815;SDS011;4947;44.526;11.360;2022-12-16T06:08:38;15.00;;;11.60;;
9815;SDS011;4947;44.526;11.360;2022-12-16T06:11:22;14.27;;;11.73;;
9815;SDS011;4947;44.526;11.360;2022-12-16T06:14:07;14.03;;;11.33;;
9815;SDS011;4947;44.526;11.360;2022-12-16T06:16:53;16.87;;;12.13;;
9815;SDS011;4947;44.526;11.360;2022-12-16T06:19:37;16.30;;;12.47;;
9815;SDS011;4947;44.526;11.360;2022-12-16T06:22:23;15.90;;;13.27;;
9815;SDS011;4947;44.526;11.360;2022-12-16T06:25:07;17.10;;;13.47;;
9815;SDS011;4947;44.526;11.360;2022-12-16T06:27:52;17.23;;;13.67;;
9815;SDS011;4947;44.526;11.360;2022-12-16T06:30:36;19.37;;;14.63;;
9815;SDS011;4947;44.526;11.360;2022-12-16T06:33:22;21.70;;;14.90;;
9815;SDS011;4947;44.526;11.360;2022-12-16T06:36:07;22.53;;;15.60;;
9815;SDS011;4947;44.526;11.360;2022-12-16T06:38:52;20.30;;;16.17;;
9815;SDS011;4947;44.526;11.360;2022-12-16T06:41:37;24.27;;;15.80;;
9815;SDS011;4947;44.526;11.360;2022-12-16T06:44:21;23.20;;;15.93;;
9815;SDS011;4947;44.526;11.360;2022-12-16T06:47:05;21.27;;;16.70;;
9815;SDS011;4947;44.526;11.360;2022-12-16T06:49:52;22.67;;;16.50;;
9815;SDS011;4947;44.526;11.360;2022-12-16T06:52:36;24.97;;;17.77;;
9815;SDS011;4947;44.526;11.360;2022-12-16T06:55:20;22.23;;;16.00;;
9815;SDS011;4947;44.526;11.360;2022-12-16T06:58:04;20.37;;;15.63;;
9815;SDS011;4947;44.526;11.360;2022-12-16T07:00:49;22.03;;;16.60;;
9815;SDS011;4947;44.526;11.360;2022-12-16T07:03:33;20.27;;;14.10;;
9815;SDS011;4947;44.526;11.360;2022-12-16T07:06:19;19.33;;;15.60;;
9815;SDS011;4947;44.526;11.360;2022-12-16T07:09:04;19.80;;;15.57;;
9815;SDS011;4947;44.526;11.360;2022-12-16T07:11:48;23.03;;;15.97;;
9815;SDS011;4947;44.526;11.360;2022-12-16T07:14:33;20.97;;;15.23;;
9815;SDS011;4947;44.526;11.360;2022-12-16T07:17:17;20.40;;;14.23;;
9815;SDS011;4947;44.526;11.360;2022-12-16T07:20:02;23.23;;;14.40;;
9815;SDS011;4947;44.526;11.360;2022-12-16T07:22:48;24.60;;;15.90;;
9815;SDS011;4947;44.526;11.360;2022-12-16T07:25:32;22.50;;;14.60;;
9815;SDS011;4947;44.526;11.360;2022-12-16T07:28:17;22.63;;;14.37;;
9815;SDS011;4947;44.526;11.360;2022-12-16T07:31:02;21.33;;;13.90;;
9815;SDS011;4947;44.526;11.360;2022-12-16T07:33:46;22.57;;;14.50;;
9815;SDS011;4947;44.526;11.360;2022-12-16T07:36:31;24.00;;;15.07;;
9815;SDS011;4947;44.526;11.360;2022-12-16T07:39:17;19.40;;;14.03;;
9815;SDS011;4947;44.526;11.360;2022-12-16T07:42:01;25.57;;;15.43;;
9815;SDS011;4947;44.526;11.360;2022-12-16T07:44:46;20.83;;;13.55;;
9815;SDS011;4947;44.526;11.360;2022-12-16T07:47:31;21.87;;;13.07;;
9815;SDS011;4947;44.526;11.360;2022-12-16T07:50:15;20.37;;;14.00;;
9815;SDS011;4947;44.526;11.360;2022-12-16T07:53:00;23.55;;;14.85;;
9815;SDS011;4947;44.526;11.360;2022-12-16T07:55:46;18.00;;;12.88;;
9815;SDS011;4947;44.526;11.360;2022-12-16T07:58:31;20.03;;;14.40;;
9815;SDS011;4947;44.526;11.360;2022-12-16T08:01:15;18.77;;;13.10;;
9815;SDS011;4947;44.526;11.360;2022-12-16T08:03:59;21.77;;;13.37;;
9815;SDS011;4947;44.526;11.360;2022-12-16T08:06:44;19.47;;;12.60;;
9815;SDS011;4947;44.526;11.360;2022-12-16T08:09:28;21.73;;;12.23;;
9815;SDS011;4947;44.526;11.360;2022-12-16T08:12:14;19.90;;;12.47;;
9815;SDS011;4947;44.526;11.360;2022-12-16T08:14:59;16.87;;;12.17;;
9815;SDS011;4947;44.526;11.360;2022-12-16T08:17:46;20.57;;;12.97;;
9815;SDS011;4947;44.526;11.360;2022-12-16T08:20:31;18.83;;;11.97;;
9815;SDS011;4947;44.526;11.360;2022-12-16T08:23:16;19.47;;;14.13;;
9815;SDS011;4947;44.526;11.360;2022-12-16T08:26:00;21.33;;;12.70;;
9815;SDS011;4947;44.526;11.360;2022-12-16T08:28:46;21.80;;;13.83;;
9815;SDS011;4947;44.526;11.360;2022-12-16T08:31:31;21.03;;;13.43;;
9815;SDS011;4947;44.526;11.360;2022-12-16T08:34:16;18.67;;;12.37;;
9815;SDS011;4947;44.526;11.360;2022-12-16T08:37:00;20.53;;;12.90;;
9815;SDS011;4947;44.526;11.360;2022-12-16T08:39:45;20.00;;;12.87;;
9815;SDS011;4947;44.526;11.360;2022-12-16T08:42:29;19.93;;;13.23;;
9815;SDS011;4947;44.526;11.360;2022-12-16T08:45:15;18.40;;;13.07;;
9815;SDS011;4947;44.526;11.360;2022-12-16T08:47:59;19.83;;;13.45;;
9815;SDS011;4947;44.526;11.360;2022-12-16T08:50:44;20.40;;;12.57;;
9815;SDS011;4947;44.526;11.360;2022-12-16T08:53:28;17.57;;;11.90;;
9815;SDS011;4947;44.526;11.360;2022-12-16T08:56:13;18.77;;;11.83;;
9815;SDS011;4947;44.526;11.360;2022-12-16T08:58:57;19.53;;;12.07;;
9815;SDS011;4947;44.526;11.360;2022-12-16T09:01:43;18.80;;;12.90;;
9815;SDS011;4947;44.526;11.360;2022-12-16T09:04:27;20.07;;;11.87;;
9815;SDS011;4947;44.526;11.360;2022-12-16T09:07:11;16.83;;;11.98;;
9815;SDS011;4947;44.526;11.360;2022-12-16T09:09:59;20.15;;;12.48;;
9815;SDS011;4947;44.526;11.360;2022-12-16T09:12:43;18.70;;;12.90;;
9815;SDS011;4947;44.526;11.360;2022-12-16T09:15:28;21.33;;;13.40;;
9815;SDS011;4947;44.526;11.360;2022-12-16T09:18:13;19.20;;;12.77;;
9815;SDS011;4947;44.526;11.360;2022-12-16T09:20:58;17.97;;;11.37;;
9815;SDS011;4947;44.526;11.360;2022-12-16T09:23:43;24.53;;;13.90;;
9815;SDS011;4947;44.526;11.360;2022-12-16T09:26:27;20.00;;;12.90;;
9815;SDS011;4947;44.526;11.360;2022-12-16T09:29:12;20.67;;;12.83;;
9815;SDS011;4947;44.526;11.360;2022-12-16T09:31:56;18.60;;;12.17;;
9815;SDS011;4947;44.526;11.360;2022-12-16T09:34:42;13.53;;;10.57;;
9815;SDS011;4947;44.526;11.360;2022-12-16T09:37:26;20.07;;;11.20;;
9815;SDS011;4947;44.526;11.360;2022-12-16T09:40:12;14.63;;;10.70;;
9815;SDS011;4947;44.526;11.360;2022-12-16T09:42:59;13.73;;;9.80;;
9815;SDS011;4947;44.526;11.360;2022-12-16T09:45:52;15.98;;;10.05;;
9815;SDS011;4947;44.526;11.360;2022-12-16T09:48:44;13.77;;;9.10;;
9815;SDS011;4947;44.526;11.360;2022-12-16T09:51:35;10.27;;;8.23;;
9815;SDS011;4947;44.526;11.360;2022-12-16T09:54:30;10.57;;;7.67;;
9815;SDS011;4947;44.526;11.360;2022-12-16T09:57:19;12.77;;;8.70;;
9815;SDS011;4947;44.526;11.360;2022-12-16T10:00:05;14.97;;;8.07;;
9815;SDS011;4947;44.526;11.360;2022-12-16T10:02:55;8.52;;;7.55;;
9815;SDS011;4947;44.526;11.360;2022-12-16T10:05:42;10.15;;;7.32;;
9815;SDS011;4947;44.526;11.360;2022-12-16T10:08:36;10.53;;;8.87;;
9815;SDS011;4947;44.526;11.360;2022-12-16T10:11:35;10.93;;;7.85;;
9815;SDS011;4947;44.526;11.360;2022-12-16T10:14:27;10.05;;;7.72;;
9815;SDS011;4947;44.526;11.360;2022-12-16T10:17:16;10.73;;;8.02;;
9815;SDS011;4947;44.526;11.360;2022-12-16T10:20:06;9.13;;;7.13;;
9815;SDS011;4947;44.526;11.360;2022-12-16T10:22:59;8.85;;;7.05;;
9815;SDS011;4947;44.526;11.360;2022-12-16T10:25:50;8.38;;;6.78;;
9815;SDS011;4947;44.526;11.360;2022-12-16T10:28:41;9.82;;;6.97;;
9815;SDS011;4947;44.526;11.360;2022-12-16T10:31:28;8.35;;;6.22;;
9815;SDS011;4947;44.526;11.360;2022-12-16T10:34:13;7.75;;;6.90;;
9815;SDS011;4947;44.526;11.360;2022-12-16T10:37:01;9.40;;;7.20;;
9815;SDS011;4947;44.526;11.360;2022-12-16T10:39:46;7.47;;;6.53;;
9815;SDS011;4947;44.526;11.360;2022-12-16T10:42:36;11.30;;;7.00;;
9815;SDS011;4947;44.526;11.360;2022-12-16T10:45:27;8.15;;;7.07;;
9815;SDS011;4947;44.526;11.360;2022-12-16T10:48:14;6.93;;;6.23;;
9815;SDS011;4947;44.526;11.360;2022-12-16T10:51:08;7.40;;;5.43;;
9815;SDS011;4947;44.526;11.360;2022-12-16T10:53:55;6.87;;;6.10;;
9815;SDS011;4947;44.526;11.360;2022-12-16T10:56:59;6.60;;;5.65;;
9815;SDS011;4947;44.526;11.360;2022-12-16T10:59:59;6.53;;;5.80;;
9815;SDS011;4947;44.526;11.360;2022-12-16T11:02:52;9.07;;;6.45;;
9815;SDS011;4947;44.526;11.360;2022-12-16T11:05:37;9.20;;;6.97;;
9815;SDS011;4947;44.526;11.360;2022-12-16T11:08:22;7.10;;;6.10;;
9815;SDS011;4947;44.526;11.360;2022-12-16T11:11:12;8.13;;;6.63;;
9815;SDS011;4947;44.526;11.360;2022-12-16T11:14:19;10.90;;;7.68;;
9815;SDS011;4947;44.526;11.360;2022-12-16T11:17:15;11.07;;;7.30;;
9815;SDS011;4947;44.526;11.360;2022-12-16T11:20:05;8.90;;;7.60;;
9815;SDS011;4947;44.526;11.360;2022-12-16T11:26:08;8.55;;;7.05;;
9815;SDS011;4947;44.526;11.360;2022-12-16T11:29:04;8.43;;;7.00;;
9815;SDS011;4947;44.526;11.360;2022-12-16T11:31:53;9.27;;;7.53;;
9815;SDS011;4947;44.526;11.360;2022-12-16T11:34:48;9.20;;;6.95;;
9815;SDS011;4947;44.526;11.360;2022-12-16T11:37:35;10.97;;;7.63;;
9815;SDS011;4947;44.526;11.360;2022-12-16T11:40:21;10.20;;;7.80;;
9815;SDS011;4947;44.526;11.360;2022-12-16T11:43:07;9.45;;;7.55;;
9815;SDS011;4947;44.526;11.360;2022-12-16T11:45:55;9.67;;;8.10;;
9815;SDS011;4947;44.526;11.360;2022-12-16T11:48:43;11.63;;;7.90;;
9815;SDS011;4947;44.526;11.360;2022-12-16T11:51:35;9.32;;;7.68;;
9815;SDS011;4947;44.526;11.360;2022-12-16T11:54:22;8.67;;;7.17;;
9815;SDS011;4947;44.526;11.360;2022-12-16T11:57:15;11.40;;;7.57;;
9815;SDS011;4947;44.526;11.360;2022-12-16T12:00:02;11.17;;;7.67;;
9815;SDS011;4947;44.526;11.360;2022-12-16T12:02:48;8.77;;;7.67;;
9815;SDS011;4947;44.526;11.360;2022-12-16T12:05:39;10.55;;;8.55;;
9815;SDS011;4947;44.526;11.360;2022-12-16T12:08:31;8.95;;;7.53;;
9815;SDS011;4947;44.526;11.360;2022-12-16T12:11:24;11.93;;;8.67;;
9815;SDS011;4947;44.526;11.360;2022-12-16T12:14:15;11.97;;;8.53;;
9815;SDS011;4947;44.526;11.360;2022-12-16T12:17:13;10.23;;;8.53;;
9815;SDS011;4947;44.526;11.360;2022-12-16T12:23:11;10.33;;;8.30;;
9815;SDS011;4947;44.526;11.360;2022-12-16T12:26:08;10.30;;;8.33;;
9815;SDS011;4947;44.526;11.360;2022-12-16T12:28:57;10.63;;;7.88;;
9815;SDS011;4947;44.526;11.360;2022-12-16T12:31:51;13.02;;;9.70;;
9815;SDS011;4947;44.526;11.360;2022-12-16T12:34:44;14.02;;;8.68;;
9815;SDS011;4947;44.526;11.360;2022-12-16T12:37:38;13.00;;;8.80;;
9815;SDS011;4947;44.526;11.360;2022-12-16T12:40:39;15.90;;;9.70;;
9815;SDS011;4947;44.526;11.360;2022-12-16T12:43:35;14.63;;;10.03;;
9815;SDS011;4947;44.526;11.360;2022-12-16T12:46:30;12.07;;;9.07;;
9815;SDS011;4947;44.526;11.360;2022-12-16T12:49:21;10.63;;;9.27;;
9815;SDS011;4947;44.526;11.360;2022-12-16T12:52:14;13.97;;;9.90;;
9815;SDS011;4947;44.526;11.360;2022-12-16T12:55:08;15.50;;;11.13;;
9815;SDS011;4947;44.526;11.360;2022-12-16T12:57:59;16.57;;;11.40;;
9815;SDS011;4947;44.526;11.360;2022-12-16T13:00:47;13.90;;;10.73;;
9815;SDS011;4947;44.526;11.360;2022-12-16T13:03:35;15.82;;;11.75;;
9815;SDS011;4947;44.526;11.360;2022-12-16T13:06:22;16.08;;;11.65;;
9815;SDS011;4947;44.526;11.360;2022-12-16T13:09:21;15.47;;;11.70;;
9815;SDS011;4947;44.526;11.360;2022-12-16T13:12:24;16.50;;;11.63;;
9815;SDS011;4947;44.526;11.360;2022-12-16T13:15:17;15.70;;;11.60;;
9815;SDS011;4947;44.526;11.360;2022-12-16T13:18:22;16.52;;;11.82;;
9815;SDS011;4947;44.526;11.360;2022-12-16T13:24:33;21.52;;;12.77;;
9815;SDS011;4947;44.526;11.360;2022-12-16T13:27:20;17.63;;;12.53;;
9815;SDS011;4947;44.526;11.360;2022-12-16T13:30:16;18.87;;;12.53;;
9815;SDS011;4947;44.526;11.360;2022-12-16T13:33:05;17.08;;;12.30;;
9815;SDS011;4947;44.526;11.360;2022-12-16T13:35:54;20.13;;;13.50;;
9815;SDS011;4947;44.526;11.360;2022-12-16T13:38:44;25.42;;;16.67;;
9815;SDS011;4947;44.526;11.360;2022-12-16T13:41:48;24.73;;;16.63;;
9815;SDS011;4947;44.526;11.360;2022-12-16T13:50:42;24.83;;;16.57;;
9815;SDS011;4947;44.526;11.360;2022-12-16T13:53:29;27.20;;;17.55;;
9815;SDS011;4947;44.526;11.360;2022-12-16T13:56:17;29.07;;;17.17;;
9815;SDS011;4947;44.526;11.360;2022-12-16T13:59:12;26.67;;;18.13;;
9815;SDS011;4947;44.526;11.360;2022-12-16T14:02:01;26.50;;;17.00;;
9815;SDS011;4947;44.526;11.360;2022-12-16T14:04:54;29.33;;;18.30;;
9815;SDS011;4947;44.526;11.360;2022-12-16T14:07:39;28.13;;;17.95;;
9815;SDS011;4947;44.526;11.360;2022-12-16T14:10:26;27.10;;;17.73;;
9815;SDS011;4947;44.526;11.360;2022-12-16T14:13:13;29.88;;;20.23;;
9815;SDS011;4947;44.526;11.360;2022-12-16T14:16:05;28.53;;;18.37;;
9815;SDS011;4947;44.526;11.360;2022-12-16T14:18:59;28.42;;;17.95;;
9815;SDS011;4947;44.526;11.360;2022-12-16T14:21:56;28.25;;;17.92;;
9815;SDS011;4947;44.526;11.360;2022-12-16T14:24:49;25.97;;;17.33;;
9815;SDS011;4947;44.526;11.360;2022-12-16T14:27:35;26.13;;;17.42;;
9815;SDS011;4947;44.526;11.360;2022-12-16T14:30:20;24.85;;;17.52;;
9815;SDS011;4947;44.526;11.360;2022-12-16T14:33:14;28.65;;;17.60;;
9815;SDS011;4947;44.526;11.360;2022-12-16T14:35:59;27.02;;;18.33;;
9815;SDS011;4947;44.526;11.360;2022-12-16T14:38:46;24.33;;;16.80;;
9815;SDS011;4947;44.526;11.360;2022-12-16T14:41:31;26.23;;;16.83;;
9815;SDS011;4947;44.526;11.360;2022-12-16T14:44:18;24.92;;;16.90;;
9815;SDS011;4947;44.526;11.360;2022-12-16T14:47:04;25.03;;;16.13;;
9815;SDS011;4947;44.526;11.360;2022-12-16T14:49:54;24.65;;;16.60;;
9815;SDS011;4947;44.526;11.360;2022-12-16T14:52:39;25.77;;;16.77;;
9815;SDS011;4947;44.526;11.360;2022-12-16T14:55:26;26.70;;;17.10;;
9815;SDS011;4947;44.526;11.360;2022-12-16T14:58:13;27.23;;;17.77;;
9815;SDS011;4947;44.526;11.360;2022-12-16T15:01:00;28.60;;;18.73;;
9815;SDS011;4947;44.526;11.360;2022-12-16T15:03:47;26.27;;;17.90;;
9815;SDS011;4947;44.526;11.360;2022-12-16T15:06:33;29.35;;;17.73;;
9815;SDS011;4947;44.526;11.360;2022-12-16T15:09:22;31.15;;;18.52;;
9815;SDS011;4947;44.526;11.360;2022-12-16T15:12:09;25.73;;;17.98;;
9815;SDS011;4947;44.526;11.360;2022-12-16T15:14:57;29.42;;;19.23;;
9815;SDS011;4947;44.526;11.360;2022-12-16T15:17:45;33.50;;;19.03;;
9815;SDS011;4947;44.526;11.360;2022-12-16T15:20:33;27.92;;;18.77;;
9815;SDS011;4947;44.526;11.360;2022-12-16T15:23:20;32.60;;;19.48;;
9815;SDS011;4947;44.526;11.360;2022-12-16T15:26:07;32.30;;;19.55;;
9815;SDS011;4947;44.526;11.360;2022-12-16T15:28:51;32.78;;;20.73;;
9815;SDS011;4947;44.526;11.360;2022-12-16T15:31:37;34.47;;;21.10;;
9815;SDS011;4947;44.526;11.360;2022-12-16T15:34:26;35.35;;;21.98;;
9815;SDS011;4947;44.526;11.360;2022-12-16T15:37:17;34.72;;;20.48;;
9815;SDS011;4947;44.526;11.360;2022-12-16T15:40:04;40.00;;;22.60;;
9815;SDS011;4947;44.526;11.360;2022-12-16T15:43:00;33.17;;;20.80;;
9815;SDS011;4947;44.526;11.360;2022-12-16T15:45:46;33.55;;;20.58;;
9815;SDS011;4947;44.526;11.360;2022-12-16T15:48:32;32.22;;;20.15;;
9815;SDS011;4947;44.526;11.360;2022-12-16T15:51:22;35.33;;;20.70;;
9815;SDS011;4947;44.526;11.360;2022-12-16T15:54:13;36.30;;;21.08;;
9815;SDS011;4947;44.526;11.360;2022-12-16T15:56:59;37.10;;;21.20;;
9815;SDS011;4947;44.526;11.360;2022-12-16T15:59:54;36.05;;;21.52;;
9815;SDS011;4947;44.526;11.360;2022-12-16T16:02:44;38.83;;;21.87;;
9815;SDS011;4947;44.526;11.360;2022-12-16T16:05:32;37.25;;;20.45;;
9815;SDS011;4947;44.526;11.360;2022-12-16T16:08:20;38.92;;;21.85;;
9815;SDS011;4947;44.526;11.360;2022-12-16T16:11:05;42.33;;;22.33;;
9815;SDS011;4947;44.526;11.360;2022-12-16T16:13:50;42.57;;;23.57;;
9815;SDS011;4947;44.526;11.360;2022-12-16T16:16:35;37.53;;;20.43;;
9815;SDS011;4947;44.526;11.360;2022-12-16T16:19:20;42.20;;;22.60;;
9815;SDS011;4947;44.526;11.360;2022-12-16T16:22:08;39.43;;;21.63;;
9815;SDS011;4947;44.526;11.360;2022-12-16T16:24:55;38.57;;;22.27;;
9815;SDS011;4947;44.526;11.360;2022-12-16T16:27:40;42.70;;;21.17;;
9815;SDS011;4947;44.526;11.360;2022-12-16T16:30:21;39.87;;;21.33;;
9815;SDS011;4947;44.526;11.360;2022-12-16T16:33:05;49.00;;;21.23;;